createdAt,value
2018-10-02T00:02:00.137Z,1014.29
2018-10-02T00:06:55.598Z,1014.21
2018-10-02T00:11:51.198Z,1014.22
2018-10-02T00:16:47.846Z,1014.17
2018-10-02T00:21:44.237Z,1014.13
2018-10-02T00:26:39.697Z,1014.08
2018-10-02T00:31:36.563Z,1014.14
2018-10-02T00:36:32.036Z,1014.08
2018-10-02T00:41:28.896Z,1014.06
2018-10-02T00:46:25.019Z,1014.08
2018-10-02T00:51:20.863Z,1014.12
2018-10-02T00:56:17.348Z,1014.20
2018-10-02T01:01:12.904Z,1014.09
2018-10-02T01:06:09.123Z,1014.03
2018-10-02T01:11:04.566Z,1014.18
2018-10-02T01:16:00.352Z,1014.05
2018-10-02T01:20:56.363Z,1013.98
2018-10-02T01:25:52.341Z,1013.81
2018-10-02T01:30:49.235Z,1013.84
2018-10-02T01:35:45.887Z,1013.84
2018-10-02T01:40:41.368Z,1013.86
2018-10-02T01:45:38.188Z,1013.77
2018-10-02T01:50:33.757Z,1013.68
2018-10-02T01:55:29.537Z,1013.75
2018-10-02T02:00:25.481Z,1013.58
2018-10-02T02:05:22.529Z,1013.78
2018-10-02T02:10:18.130Z,1013.60
2018-10-02T02:15:13.890Z,1013.46
2018-10-02T02:20:09.147Z,1013.35
2018-10-02T02:25:04.762Z,1013.26
2018-10-02T02:30:00.445Z,1013.18
2018-10-02T02:34:55.955Z,1013.14
2018-10-02T02:39:52.923Z,1013.13
2018-10-02T02:44:48.169Z,1013.08
2018-10-02T02:49:44.792Z,1013.10
2018-10-02T02:54:41.558Z,1013.08
2018-10-02T02:59:37.127Z,1012.95
2018-10-02T03:04:33.756Z,1012.90
2018-10-02T03:09:29.232Z,1012.75
2018-10-02T03:14:25.091Z,1012.74
2018-10-02T03:19:20.456Z,1012.56
2018-10-02T03:24:17.434Z,1012.47
2018-10-02T03:29:13.242Z,1012.42
2018-10-02T03:34:09.092Z,1012.50
2018-10-02T03:39:04.521Z,1012.27
2018-10-02T03:44:01.290Z,1012.28
2018-10-02T03:48:57.261Z,1012.29
2018-10-02T03:53:53.047Z,1012.06
2018-10-02T03:58:48.813Z,1012.17
2018-10-02T04:03:45.697Z,1012.14
2018-10-02T04:08:41.822Z,1011.96
2018-10-02T04:13:37.679Z,1011.88
2018-10-02T04:18:33.429Z,1011.71
2018-10-02T04:23:29.383Z,1011.59
2018-10-02T04:28:25.231Z,1011.67
2018-10-02T04:33:20.920Z,1011.80
2018-10-02T04:38:16.743Z,1011.70
2018-10-02T04:43:13.173Z,1011.68
2018-10-02T04:48:08.674Z,1011.65
2018-10-02T04:53:04.525Z,1011.55
2018-10-02T04:58:01.388Z,1011.55
2018-10-02T05:02:56.796Z,1011.35
2018-10-02T05:07:52.613Z,1011.35
2018-10-02T05:12:49.393Z,1011.52
2018-10-02T05:17:44.949Z,1011.35
2018-10-02T05:22:40.746Z,1011.37
2018-10-02T05:27:36.597Z,1011.29
2018-10-02T05:32:32.994Z,1011.13
2018-10-02T05:37:29.894Z,1011.22
2018-10-02T05:42:25.484Z,1011.06
2018-10-02T05:47:21.118Z,1011.15
2018-10-02T05:52:18.889Z,1011.12
2018-10-02T05:57:13.941Z,1010.98
2018-10-02T06:02:09.880Z,1011.02
2018-10-02T06:07:05.541Z,1011.00
2018-10-02T06:12:02.523Z,1010.88
2018-10-02T06:16:58.545Z,1010.83
2018-10-02T06:21:54.455Z,1010.74
2018-10-02T06:26:51.154Z,1010.56
2018-10-02T06:31:46.857Z,1010.43
2018-10-02T06:36:42.684Z,1010.39
2018-10-02T06:41:38.486Z,1010.43
2018-10-02T06:46:34.861Z,1010.33
2018-10-02T06:51:31.460Z,1010.42
2018-10-02T06:56:28.368Z,1010.23
2018-10-02T07:01:23.689Z,1010.20
2018-10-02T07:06:21.189Z,1010.36
2018-10-02T07:11:16.797Z,1010.14
2018-10-02T07:16:13.811Z,1010.10
2018-10-02T07:21:09.836Z,1010.24
2018-10-02T07:26:05.833Z,1010.21
2018-10-02T07:31:01.776Z,1009.99
2018-10-02T07:35:57.595Z,1010.04
2018-10-02T07:40:53.408Z,1009.86
2018-10-02T07:45:49.119Z,1009.84
2018-10-02T07:50:44.997Z,1009.74
2018-10-02T07:55:42.069Z,1009.77
2018-10-02T08:00:37.714Z,1009.56
2018-10-02T08:05:33.605Z,1009.71
2018-10-02T08:10:30.395Z,1009.54
2018-10-02T08:15:25.834Z,1009.58
2018-10-02T08:20:22.287Z,1009.51
2018-10-02T08:25:17.884Z,1009.56
2018-10-02T08:30:15.344Z,1009.42
2018-10-02T08:35:11.072Z,1009.32
2018-10-02T08:40:07.104Z,1009.26
2018-10-02T08:45:02.881Z,1009.15
2018-10-02T08:49:59.365Z,1009.21
2018-10-02T08:54:54.928Z,1009.11
2018-10-02T08:59:51.487Z,1009.04
2018-10-02T09:04:47.298Z,1009.19
2018-10-02T09:09:43.050Z,1009.14
2018-10-02T09:14:39.008Z,1009.18
2018-10-02T09:19:36.299Z,1009.19
2018-10-02T09:24:32.224Z,1008.93
2018-10-02T09:29:27.590Z,1008.94
2018-10-02T09:34:23.602Z,1008.90
2018-10-02T09:39:19.324Z,1008.80
2018-10-02T09:44:16.166Z,1008.69
2018-10-02T09:49:12.070Z,1008.81
2018-10-02T09:54:07.925Z,1008.66
2018-10-02T09:59:03.683Z,1008.72
2018-10-02T10:03:59.630Z,1008.61
2018-10-02T10:08:55.215Z,1008.66
2018-10-02T10:13:50.988Z,1008.68
2018-10-02T10:18:47.503Z,1008.63
2018-10-02T10:23:44.038Z,1008.81
2018-10-02T10:28:39.662Z,1008.77
2018-10-02T10:33:37.812Z,1008.77
2018-10-02T10:38:32.982Z,1008.80
2018-10-02T10:43:29.798Z,1008.65
2018-10-02T10:48:26.329Z,1008.62
2018-10-02T10:53:23.388Z,1008.70
2018-10-02T10:58:19.562Z,1008.74
2018-10-02T11:03:15.728Z,1008.43
2018-10-02T11:08:11.814Z,1008.50
2018-10-02T11:13:07.787Z,1008.41
2018-10-02T11:18:05.498Z,1008.33
2018-10-02T11:23:02.622Z,1008.26
2018-10-02T11:27:58.182Z,1008.26
2018-10-02T11:32:54.126Z,1008.19
2018-10-02T11:37:51.220Z,1008.19
2018-10-02T11:42:47.900Z,1008.06
2018-10-02T11:47:43.502Z,1008.08
2018-10-02T11:52:40.427Z,1008.00
2018-10-02T11:57:36.166Z,1007.98
2018-10-02T12:02:32.053Z,1007.90
2018-10-02T12:07:28.879Z,1007.83
2018-10-02T12:12:24.402Z,1007.95
2018-10-02T12:17:20.528Z,1007.75
2018-10-02T12:22:16.896Z,1007.65
2018-10-02T12:27:12.693Z,1007.74
2018-10-02T12:32:08.582Z,1007.81
2018-10-02T12:37:05.020Z,1007.68
2018-10-02T12:42:00.733Z,1007.67
2018-10-02T12:46:56.773Z,1007.60
2018-10-02T12:51:52.750Z,1007.74
2018-10-02T12:56:48.889Z,1007.74
2018-10-02T13:01:45.660Z,1007.57
2018-10-02T13:06:42.835Z,1007.55
2018-10-02T13:11:39.056Z,1007.70
2018-10-02T13:16:34.363Z,1007.64
2018-10-02T13:21:31.456Z,1007.65
2018-10-02T13:26:28.786Z,1007.71
2018-10-02T13:31:24.554Z,1007.60
2018-10-02T13:36:20.434Z,1007.60
2018-10-02T13:41:16.246Z,1007.79
2018-10-02T13:46:12.696Z,1007.77
2018-10-02T13:51:08.594Z,1007.75
2018-10-02T13:56:04.405Z,1007.72
2018-10-02T14:01:01.057Z,1007.75
2018-10-02T14:05:56.987Z,1007.66
2018-10-02T14:10:52.865Z,1007.61
2018-10-02T14:15:49.984Z,1007.58
2018-10-02T14:20:45.535Z,1007.62
2018-10-02T14:25:42.305Z,1007.66
2018-10-02T14:30:38.075Z,1007.80
2018-10-02T14:35:34.824Z,1007.81
2018-10-02T14:40:30.815Z,1007.86
2018-10-02T14:45:27.235Z,1007.81
2018-10-02T14:50:24.748Z,1007.81
2018-10-02T14:55:20.343Z,1007.87
2018-10-02T15:00:18.081Z,1007.85
2018-10-02T15:05:15.167Z,1007.83
2018-10-02T15:10:11.433Z,1007.76
2018-10-02T15:15:08.399Z,1007.85
2018-10-02T15:20:04.692Z,1007.85
2018-10-02T15:25:00.565Z,1007.75
2018-10-02T15:29:56.545Z,1007.86
2018-10-02T15:34:52.065Z,1007.72
2018-10-02T15:39:47.769Z,1008.02
2018-10-02T15:44:44.071Z,1008.09
2018-10-02T15:49:39.975Z,1008.16
2018-10-02T15:54:35.792Z,1008.16
2018-10-02T15:59:31.350Z,1008.26
2018-10-02T16:04:27.333Z,1008.15
2018-10-02T16:09:24.325Z,1008.33
2018-10-02T16:14:19.857Z,1008.35
2018-10-02T16:19:15.673Z,1008.45
2018-10-02T16:24:11.664Z,1008.49
2018-10-02T16:29:07.597Z,1008.45
2018-10-02T16:34:03.522Z,1008.54
2018-10-02T16:38:59.352Z,1008.70
2018-10-02T16:43:55.175Z,1008.76
2018-10-02T16:48:51.100Z,1008.78
2018-10-02T16:53:47.112Z,1008.89
2018-10-02T16:58:42.991Z,1008.81
2018-10-02T17:03:38.527Z,1008.89
2018-10-02T17:08:35.317Z,1008.98
2018-10-02T17:13:31.660Z,1009.08
2018-10-02T17:18:27.232Z,1009.16
2018-10-02T17:23:24.698Z,1009.24
2018-10-02T17:28:20.523Z,1009.39
2018-10-02T17:33:16.374Z,1009.36
2018-10-02T17:38:12.989Z,1009.51
2018-10-02T17:43:09.525Z,1009.49
2018-10-02T17:48:05.982Z,1009.49
2018-10-02T17:53:02.449Z,1009.46
2018-10-02T17:57:58.849Z,1009.67
2018-10-02T18:02:55.516Z,1009.76
2018-10-02T18:07:52.035Z,1009.63
2018-10-02T18:12:48.738Z,1009.73
2018-10-02T18:17:44.854Z,1009.73
2018-10-02T18:22:40.819Z,1009.78
2018-10-02T18:27:36.816Z,1009.82
2018-10-02T18:32:33.675Z,1009.82
2018-10-02T18:37:29.296Z,1009.79
2018-10-02T18:42:25.006Z,1009.93
2018-10-02T18:47:20.633Z,1009.89
2018-10-02T18:52:17.431Z,1009.89
2018-10-02T18:57:12.688Z,1009.90
2018-10-02T19:02:09.793Z,1009.96
2018-10-02T19:07:05.496Z,1010.01
2018-10-02T19:12:02.489Z,1009.99
2018-10-02T19:16:58.122Z,1010.01
2018-10-02T19:21:53.779Z,1010.16
2018-10-02T19:26:49.208Z,1010.34
2018-10-02T19:31:45.177Z,1010.31
2018-10-02T19:36:41.019Z,1010.41
2018-10-02T19:41:36.684Z,1010.39
2018-10-02T19:46:32.954Z,1010.44
2018-10-02T19:51:28.567Z,1010.59
2018-10-02T19:56:25.497Z,1010.57
2018-10-02T20:01:21.890Z,1010.62
2018-10-02T20:06:16.960Z,1010.71
2018-10-02T20:11:13.103Z,1010.75
2018-10-02T20:16:08.861Z,1010.69
2018-10-02T20:21:04.868Z,1010.78
2018-10-02T20:26:00.827Z,1010.82
2018-10-02T20:30:57.460Z,1010.94
2018-10-02T20:35:53.188Z,1010.99
2018-10-02T20:40:48.932Z,1011.00
2018-10-02T20:45:44.780Z,1011.01
2018-10-02T20:50:40.670Z,1010.93
2018-10-02T20:55:36.524Z,1010.89
2018-10-02T21:00:33.605Z,1010.94
2018-10-02T21:05:28.876Z,1011.17
2018-10-02T21:10:24.615Z,1011.11
2018-10-02T21:15:21.528Z,1011.10
2018-10-02T21:20:17.285Z,1011.05
2018-10-02T21:25:13.048Z,1011.02
2018-10-02T21:30:09.672Z,1010.97
2018-10-02T21:35:05.258Z,1011.04
2018-10-02T21:40:01.471Z,1010.94
2018-10-02T21:44:58.132Z,1010.99
2018-10-02T21:49:53.646Z,1011.03
2018-10-02T21:54:51.263Z,1011.05
2018-10-02T21:59:46.706Z,1011.10
2018-10-02T22:04:42.671Z,1011.06
2018-10-02T22:09:39.467Z,1011.04
2018-10-02T22:14:34.990Z,1011.12
2018-10-02T22:19:30.709Z,1011.23
2018-10-02T22:24:26.346Z,1011.30
2018-10-02T22:29:22.458Z,1011.28
2018-10-02T22:34:18.280Z,1011.21
2018-10-02T22:39:14.069Z,1011.19
2018-10-02T22:44:09.855Z,1011.17
2018-10-02T22:49:06.282Z,1011.23
2018-10-02T22:54:03.030Z,1011.16
2018-10-02T22:58:59.517Z,1011.34
2018-10-02T23:03:55.041Z,1011.41
2018-10-02T23:08:52.488Z,1011.44
2018-10-02T23:13:48.555Z,1011.38
2018-10-02T23:18:44.322Z,1011.53
2018-10-02T23:23:39.717Z,1011.54
2018-10-02T23:28:35.956Z,1011.48
2018-10-02T23:33:31.897Z,1011.53
2018-10-02T23:38:27.649Z,1011.47
2018-10-02T23:43:24.166Z,1011.35
2018-10-02T23:48:19.697Z,1011.54
2018-10-02T23:53:17.341Z,1011.51
2018-10-02T23:58:13.907Z,1011.59
